createdAt,value
2023-05-02T00:00:04.901Z,12.08
2023-05-02T00:01:04.761Z,12.11
2023-05-02T00:02:04.915Z,12.06
2023-05-02T00:03:05.004Z,12.04
2023-05-02T00:04:04.939Z,12.08
2023-05-02T00:05:04.670Z,12.02
2023-05-02T00:06:04.695Z,11.96
2023-05-02T00:07:04.636Z,12.08
2023-05-02T00:08:04.753Z,12.09
2023-05-02T00:09:04.689Z,12.12
2023-05-02T00:10:04.659Z,12.06
2023-05-02T00:11:04.603Z,12.06
2023-05-02T00:12:04.773Z,12.19
2023-05-02T00:13:04.685Z,12.16
2023-05-02T00:14:04.689Z,12.13
2023-05-02T00:15:37.011Z,12.12
2023-05-02T00:16:04.593Z,12.19
2023-05-02T00:17:04.680Z,12.20
2023-05-02T00:18:04.719Z,12.15
2023-05-02T00:19:04.650Z,12.23
2023-05-02T00:20:04.701Z,12.15
2023-05-02T00:21:04.660Z,12.31
2023-05-02T00:22:04.627Z,12.20
2023-05-02T00:23:04.608Z,12.27
2023-05-02T00:24:04.612Z,12.38
2023-05-02T00:25:36.693Z,12.39
2023-05-02T00:26:04.586Z,12.45
2023-05-02T00:29:02.036Z,12.51
2023-05-02T00:30:03.595Z,12.48
2023-05-02T00:31:03.869Z,12.42
2023-05-02T00:32:03.400Z,12.39
2023-05-02T00:33:03.456Z,12.37
2023-05-02T00:34:03.374Z,12.34
2023-05-02T00:35:03.270Z,12.41
2023-05-02T00:36:03.434Z,12.37
2023-05-02T00:37:03.286Z,12.31
2023-05-02T00:38:03.275Z,12.33
2023-05-02T00:39:03.281Z,12.41
2023-05-02T00:40:03.262Z,12.37
2023-05-02T00:41:03.315Z,12.30
2023-05-02T00:42:03.287Z,12.29
2023-05-02T00:43:03.241Z,12.27
2023-05-02T00:44:03.212Z,12.16
2023-05-02T00:45:03.239Z,12.12
2023-05-02T00:46:03.261Z,12.13
2023-05-02T00:47:03.247Z,12.12
2023-05-02T00:48:03.139Z,12.27
2023-05-02T00:49:03.232Z,12.15
2023-05-02T00:50:03.403Z,12.16
2023-05-02T00:51:35.417Z,12.21
2023-05-02T00:54:00.354Z,12.39
2023-05-02T00:55:01.621Z,12.41
2023-05-02T00:56:01.599Z,12.39
2023-05-02T00:57:01.600Z,12.45
2023-05-02T00:58:01.607Z,12.49
2023-05-02T00:59:01.594Z,12.44
2023-05-02T01:00:01.825Z,12.37
2023-05-02T01:01:01.573Z,12.20
2023-05-02T01:02:01.551Z,12.12
2023-05-02T01:03:01.594Z,11.97
2023-05-02T01:04:34.933Z,11.78
2023-05-02T01:05:01.562Z,11.70
2023-05-02T01:06:01.455Z,11.65
2023-05-02T01:07:01.491Z,11.56
2023-05-02T01:08:01.449Z,11.59
2023-05-02T01:09:01.447Z,11.56
2023-05-02T01:10:01.687Z,11.62
2023-05-02T01:11:01.403Z,11.72
2023-05-02T01:12:01.560Z,11.71
2023-05-02T01:13:01.523Z,11.74
2023-05-02T01:14:01.520Z,11.64
2023-05-02T01:15:01.491Z,11.74
2023-05-02T01:16:01.513Z,11.77
2023-05-02T01:17:01.488Z,11.83
2023-05-02T01:18:01.518Z,11.72
2023-05-02T01:19:01.475Z,11.74
2023-05-02T01:20:01.697Z,11.85
2023-05-02T01:21:01.476Z,11.83
2023-05-02T01:22:01.421Z,11.90
2023-05-02T01:23:01.338Z,11.89
2023-05-02T01:24:01.397Z,11.96
2023-05-02T01:25:01.388Z,11.94
2023-05-02T01:26:01.405Z,11.94
2023-05-02T01:27:01.334Z,11.89
2023-05-02T01:28:01.330Z,11.93
2023-05-02T01:29:01.307Z,11.87
2023-05-02T01:30:01.531Z,11.89
2023-05-02T01:31:01.287Z,11.93
2023-05-02T01:32:01.711Z,11.94
2023-05-02T01:33:01.284Z,11.93
2023-05-02T01:34:01.397Z,11.93
2023-05-02T01:38:47.948Z,11.83
2023-05-02T01:39:49.172Z,11.86
2023-05-02T01:40:49.147Z,11.87
2023-05-02T01:41:49.069Z,11.74
2023-05-02T01:42:49.075Z,11.82
2023-05-02T01:43:49.086Z,11.72
2023-05-02T01:44:49.128Z,11.71
2023-05-02T01:45:48.998Z,11.74
2023-05-02T01:46:49.133Z,11.74
2023-05-02T01:47:49.098Z,11.68
2023-05-02T01:48:49.053Z,11.56
2023-05-02T01:49:49.037Z,11.74
2023-05-02T01:50:49.120Z,11.70
2023-05-02T01:51:49.098Z,11.67
2023-05-02T01:52:49.074Z,11.70
2023-05-02T01:53:49.130Z,11.67
2023-05-02T01:54:49.111Z,11.70
2023-05-02T01:55:49.045Z,11.72
2023-05-02T01:56:50.086Z,11.65
2023-05-02T01:57:49.022Z,11.57
2023-05-02T01:58:49.806Z,11.68
2023-05-02T01:59:49.006Z,11.74
2023-05-02T02:00:49.127Z,11.82
2023-05-02T02:01:48.979Z,11.83
2023-05-02T02:02:49.061Z,11.75
2023-05-02T02:04:22.146Z,11.90
2023-05-02T02:04:48.969Z,11.89
2023-05-02T02:05:49.025Z,12.05
2023-05-02T02:06:48.985Z,12.04
2023-05-02T02:07:48.924Z,11.97
2023-05-02T02:08:48.876Z,12.01
2023-05-02T02:09:48.879Z,11.93
2023-05-02T02:10:48.887Z,11.86
2023-05-02T02:11:48.922Z,11.89
2023-05-02T02:12:48.903Z,11.83
2023-05-02T02:13:48.827Z,11.83
2023-05-02T02:14:48.905Z,11.77
2023-05-02T02:15:49.053Z,11.77
2023-05-02T02:16:48.983Z,11.62
2023-05-02T02:17:48.981Z,11.67
2023-05-02T02:18:48.909Z,11.65
2023-05-02T02:19:48.957Z,11.61
2023-05-02T02:20:48.885Z,11.54
2023-05-02T02:21:48.933Z,11.54
2023-05-02T02:22:48.977Z,11.68
2023-05-02T02:23:48.879Z,11.67
2023-05-02T02:24:48.909Z,11.65
2023-05-02T02:25:48.867Z,11.70
2023-05-02T02:26:48.814Z,11.65
2023-05-02T02:27:48.871Z,11.61
2023-05-02T02:28:48.728Z,11.61
2023-05-02T02:29:48.734Z,11.67
2023-05-02T02:30:48.733Z,11.59
2023-05-02T02:31:48.851Z,11.62
2023-05-02T02:32:48.835Z,11.70
2023-05-02T02:33:49.041Z,11.70
2023-05-02T02:34:48.804Z,11.59
2023-05-02T02:35:48.791Z,11.67
2023-05-02T02:36:48.799Z,11.80
2023-05-02T02:37:48.755Z,11.78
2023-05-02T02:38:48.845Z,11.82
2023-05-02T02:39:48.737Z,11.77
2023-05-02T02:40:48.765Z,11.83
2023-05-02T02:41:48.744Z,11.85
2023-05-02T02:42:48.748Z,11.86
2023-05-02T02:43:48.688Z,11.90
2023-05-02T02:44:48.812Z,11.89
2023-05-02T02:45:48.797Z,11.90
2023-05-02T02:46:48.834Z,11.87
2023-05-02T02:47:48.793Z,11.80
2023-05-02T02:48:48.747Z,11.77
2023-05-02T02:49:48.602Z,11.74
2023-05-02T02:50:48.567Z,11.74
2023-05-02T02:51:48.651Z,11.77
2023-05-02T02:52:48.588Z,11.71
2023-05-02T02:53:48.642Z,11.62
2023-05-02T02:54:48.751Z,11.61
2023-05-02T02:55:48.628Z,11.74
2023-05-02T02:56:48.669Z,11.77
2023-05-02T02:57:48.626Z,11.67
2023-05-02T02:58:48.633Z,11.78
2023-05-02T02:59:48.608Z,11.78
2023-05-02T03:00:48.631Z,11.65
2023-05-02T03:01:48.654Z,11.68
2023-05-02T03:02:48.647Z,11.77
2023-05-02T03:03:48.702Z,11.75
2023-05-02T03:04:48.616Z,11.68
2023-05-02T03:05:48.576Z,11.62
2023-05-02T03:06:48.614Z,11.59
2023-05-02T03:07:48.559Z,11.50
2023-05-02T03:08:48.452Z,11.46
2023-05-02T03:09:48.511Z,11.50
2023-05-02T03:10:48.447Z,11.54
2023-05-02T03:11:48.586Z,11.50
2023-05-02T03:12:48.506Z,11.47
2023-05-02T03:13:48.595Z,11.44
2023-05-02T03:14:48.480Z,11.41
2023-05-02T03:15:48.512Z,11.44
2023-05-02T03:16:48.553Z,11.57
2023-05-02T03:17:48.523Z,11.43
2023-05-02T03:18:48.504Z,11.36
2023-05-02T03:19:48.552Z,11.44
2023-05-02T03:20:48.465Z,11.43
2023-05-02T03:21:48.534Z,11.43
2023-05-02T03:22:48.551Z,11.46
2023-05-02T03:23:48.441Z,11.47
2023-05-02T03:24:48.358Z,11.19
2023-05-02T03:25:48.362Z,11.03
2023-05-02T03:26:48.557Z,11.14
2023-05-02T03:27:48.432Z,11.21
2023-05-02T03:28:48.318Z,11.27
2023-05-02T03:29:48.337Z,11.31
2023-05-02T03:30:48.357Z,11.38
2023-05-02T03:31:48.326Z,11.36
2023-05-02T03:32:48.494Z,11.29
2023-05-02T03:33:48.600Z,11.38
2023-05-02T03:34:48.331Z,11.34
2023-05-02T03:35:48.343Z,11.36
2023-05-02T03:36:48.408Z,11.39
2023-05-02T03:37:49.343Z,11.31
2023-05-02T03:38:48.398Z,11.32
2023-05-02T03:39:48.332Z,11.38
2023-05-02T03:40:48.305Z,11.31
2023-05-02T03:41:48.307Z,11.36
2023-05-02T03:42:48.327Z,11.35
2023-05-02T03:43:48.364Z,11.34
2023-05-02T03:44:48.356Z,11.41
2023-05-02T03:45:48.849Z,11.38
2023-05-02T03:46:49.182Z,11.38
2023-05-02T03:47:48.250Z,11.50
2023-05-02T03:48:48.180Z,11.50
2023-05-02T03:49:48.247Z,11.49
2023-05-02T03:50:48.328Z,11.50
2023-05-02T03:51:48.156Z,11.50
2023-05-02T03:52:48.210Z,11.49
2023-05-02T03:53:48.166Z,11.46
2023-05-02T03:54:48.233Z,11.49
2023-05-02T03:55:48.253Z,11.39
2023-05-02T03:56:48.244Z,11.50
2023-05-02T03:57:48.246Z,11.39
2023-05-02T03:58:48.268Z,11.41
2023-05-02T03:59:48.176Z,11.54
2023-05-02T04:00:48.234Z,11.44
2023-05-02T04:01:48.260Z,11.35
2023-05-02T04:02:48.331Z,11.41
2023-05-02T04:03:48.216Z,11.49
2023-05-02T04:04:48.062Z,11.56
2023-05-02T04:05:48.068Z,11.56
2023-05-02T04:06:48.206Z,11.65
2023-05-02T04:07:48.127Z,11.52
2023-05-02T04:08:47.978Z,11.57
2023-05-02T04:09:48.050Z,11.62
2023-05-02T04:10:48.032Z,11.57
2023-05-02T04:11:48.068Z,11.53
2023-05-02T04:12:48.164Z,11.46
2023-05-02T04:13:48.046Z,11.53
2023-05-02T04:14:48.058Z,11.56
2023-05-02T04:15:48.041Z,11.62
2023-05-02T04:16:48.095Z,11.68
2023-05-02T04:17:48.161Z,11.65
2023-05-02T04:18:48.026Z,11.74
2023-05-02T04:19:48.093Z,11.67
2023-05-02T04:20:48.001Z,11.75
2023-05-02T04:21:48.033Z,11.82
2023-05-02T04:22:48.050Z,11.75
2023-05-02T04:23:48.040Z,11.78
2023-05-02T04:24:48.052Z,11.78
2023-05-02T04:25:48.024Z,11.93
2023-05-02T04:26:47.947Z,11.82
2023-05-02T04:27:47.888Z,11.77
2023-05-02T04:28:48.014Z,11.83
2023-05-02T04:29:47.977Z,11.75
2023-05-02T04:30:47.890Z,11.85
2023-05-02T04:31:47.850Z,11.75
2023-05-02T04:32:47.915Z,11.80
2023-05-02T04:33:48.460Z,11.74
2023-05-02T04:34:47.952Z,11.74
2023-05-02T04:35:48.036Z,11.82
2023-05-02T04:36:47.977Z,11.78
2023-05-02T04:37:47.868Z,11.85
2023-05-02T04:38:47.879Z,11.86
2023-05-02T04:39:48.006Z,11.87
2023-05-02T04:40:47.894Z,11.75
2023-05-02T04:41:47.864Z,11.74
2023-05-02T04:42:47.887Z,11.77
2023-05-02T04:43:47.896Z,11.74
2023-05-02T04:44:47.937Z,11.78
2023-05-02T04:45:47.845Z,11.71
2023-05-02T04:46:47.945Z,11.72
2023-05-02T04:47:47.853Z,11.85
2023-05-02T04:48:47.879Z,11.78
2023-05-02T04:49:47.839Z,11.68
2023-05-02T04:50:47.767Z,11.70
2023-05-02T04:51:47.746Z,11.77
2023-05-02T04:52:47.866Z,11.80
2023-05-02T04:53:47.786Z,11.83
2023-05-02T04:54:47.717Z,11.75
2023-05-02T04:55:47.717Z,11.82
2023-05-02T04:56:47.660Z,11.82
2023-05-02T04:57:47.805Z,11.85
2023-05-02T04:58:47.866Z,11.94
2023-05-02T04:59:47.769Z,11.90
2023-05-02T05:00:47.795Z,11.97
2023-05-02T05:01:47.767Z,12.01
2023-05-02T05:02:47.774Z,12.01
2023-05-02T05:03:47.968Z,12.02
2023-05-02T05:04:47.745Z,12.06
2023-05-02T05:05:47.783Z,12.02
2023-05-02T05:06:47.763Z,12.05
2023-05-02T05:07:47.694Z,12.05
2023-05-02T05:08:47.737Z,11.99
2023-05-02T05:09:47.717Z,12.20
2023-05-02T05:10:47.574Z,12.13
2023-05-02T05:11:47.611Z,12.24
2023-05-02T05:12:47.569Z,12.31
2023-05-02T05:14:03.752Z,12.41
2023-05-02T05:14:48.682Z,12.39
2023-05-02T05:15:47.633Z,12.38
2023-05-02T05:16:47.765Z,12.44
2023-05-02T05:17:47.651Z,12.44
2023-05-02T05:18:47.639Z,12.44
2023-05-02T05:19:47.785Z,12.51
2023-05-02T05:20:47.641Z,12.41
2023-05-02T05:21:47.743Z,12.37
2023-05-02T05:22:47.556Z,12.38
2023-05-02T05:23:47.672Z,12.39
2023-05-02T05:24:47.605Z,12.29
2023-05-02T05:25:47.569Z,12.39
2023-05-02T05:26:47.532Z,12.41
2023-05-02T05:27:47.591Z,12.38
2023-05-02T05:28:47.495Z,12.39
2023-05-02T05:29:47.535Z,12.33
2023-05-02T05:30:47.432Z,12.33
2023-05-02T05:31:47.609Z,12.20
2023-05-02T05:32:47.620Z,12.24
2023-05-02T05:33:47.532Z,12.11
2023-05-02T05:34:47.526Z,12.11
2023-05-02T05:35:47.490Z,12.19
2023-05-02T05:36:47.532Z,12.24
2023-05-02T05:37:47.982Z,12.21
2023-05-02T05:38:47.525Z,12.23
2023-05-02T05:39:47.471Z,12.24
2023-05-02T05:40:47.552Z,12.19
2023-05-02T05:41:47.519Z,12.15
2023-05-02T05:42:47.491Z,12.26
2023-05-02T05:43:47.492Z,12.21
2023-05-02T05:44:47.379Z,12.21
2023-05-02T05:45:47.372Z,12.27
2023-05-02T05:46:47.375Z,12.21
2023-05-02T05:47:47.353Z,12.19
2023-05-02T05:48:47.449Z,12.20
2023-05-02T05:49:47.329Z,12.23
2023-05-02T05:50:47.346Z,12.09
2023-05-02T05:51:47.281Z,12.19
2023-05-02T05:52:47.317Z,12.24
2023-05-02T05:53:47.298Z,12.15
2023-05-02T05:54:47.434Z,12.06
2023-05-02T05:55:47.408Z,12.04
2023-05-02T05:56:47.349Z,12.06
2023-05-02T05:57:47.414Z,12.15
2023-05-02T05:58:47.330Z,12.16
2023-05-02T05:59:47.422Z,12.19
2023-05-02T06:00:47.286Z,12.13
2023-05-02T06:01:47.388Z,12.08
2023-05-02T06:02:47.381Z,12.02
2023-05-02T06:03:47.782Z,12.04
2023-05-02T06:04:47.323Z,12.04
2023-05-02T06:05:47.434Z,12.09
2023-05-02T06:06:47.314Z,12.09
2023-05-02T06:07:47.199Z,12.16
2023-05-02T06:08:47.188Z,12.15
2023-05-02T06:09:47.305Z,12.12
2023-05-02T06:10:47.247Z,12.16
2023-05-02T06:11:47.139Z,12.38
2023-05-02T06:12:48.566Z,12.38
2023-05-02T06:13:48.573Z,12.33
2023-05-02T06:14:47.235Z,12.44
2023-05-02T06:15:47.309Z,12.44
2023-05-02T06:16:47.209Z,12.60
2023-05-02T06:17:47.258Z,12.71
2023-05-02T06:18:47.205Z,12.93
2023-05-02T06:19:47.192Z,12.84
2023-05-02T06:20:47.340Z,12.99
2023-05-02T06:21:47.176Z,12.93
2023-05-02T06:22:47.192Z,13.03
2023-05-02T06:23:47.181Z,12.95
2023-05-02T06:24:47.266Z,13.04
2023-05-02T06:25:47.186Z,13.00
2023-05-02T06:26:47.281Z,12.97
2023-05-02T06:27:47.160Z,12.92
2023-05-02T06:28:47.062Z,12.74
2023-05-02T06:29:47.038Z,12.59
2023-05-02T06:30:47.070Z,12.64
2023-05-02T06:31:47.032Z,12.60
2023-05-02T06:32:47.053Z,12.49
2023-05-02T06:33:47.006Z,12.48
2023-05-02T06:34:47.018Z,12.49
2023-05-02T06:35:46.994Z,12.48
2023-05-02T06:36:46.984Z,12.39
2023-05-02T06:37:47.095Z,12.46
2023-05-02T06:38:47.049Z,12.37
2023-05-02T06:39:47.076Z,12.30
2023-05-02T06:40:47.059Z,12.29
2023-05-02T06:41:46.989Z,12.24
2023-05-02T06:42:47.320Z,12.23
2023-05-02T06:43:47.008Z,12.16
2023-05-02T06:44:47.019Z,12.23
2023-05-02T06:45:47.044Z,12.24
2023-05-02T06:46:47.095Z,12.24
2023-05-02T06:47:47.066Z,12.15
2023-05-02T06:48:47.039Z,12.20
2023-05-02T06:49:47.070Z,12.16
2023-05-02T06:50:46.917Z,12.27
2023-05-02T06:51:46.900Z,12.39
2023-05-02T06:52:46.995Z,12.42
2023-05-02T06:53:47.025Z,12.34
2023-05-02T06:54:46.970Z,12.48
2023-05-02T06:55:46.959Z,12.60
2023-05-02T06:56:46.942Z,12.67
2023-05-02T06:57:46.952Z,12.81
2023-05-02T06:58:46.960Z,12.82
2023-05-02T06:59:46.944Z,12.81
2023-05-02T07:00:46.976Z,12.87
2023-05-02T07:01:46.876Z,12.87
2023-05-02T07:02:46.929Z,12.99
2023-05-02T07:03:46.937Z,12.96
2023-05-02T07:04:47.144Z,13.02
2023-05-02T07:05:46.853Z,13.04
2023-05-02T07:06:46.970Z,13.17
2023-05-02T07:07:46.778Z,13.25
2023-05-02T07:08:46.746Z,13.37
2023-05-02T07:09:46.756Z,13.43
2023-05-02T07:10:46.785Z,13.54
2023-05-02T07:11:46.780Z,13.27
2023-05-02T07:12:46.748Z,13.24
2023-05-02T07:13:46.763Z,13.25
2023-05-02T07:14:46.763Z,13.30
2023-05-02T07:15:46.773Z,13.20
2023-05-02T07:16:46.851Z,13.22
2023-05-02T07:17:46.808Z,13.18
2023-05-02T07:18:46.797Z,13.22
2023-05-02T07:19:46.724Z,13.21
2023-05-02T07:20:46.728Z,13.18
2023-05-02T07:21:46.821Z,13.25
2023-05-02T07:22:46.777Z,13.12
2023-05-02T07:23:46.773Z,13.22
2023-05-02T07:24:46.721Z,13.18
2023-05-02T07:25:46.730Z,13.06
2023-05-02T07:26:46.754Z,13.00
2023-05-02T07:27:46.743Z,13.04
2023-05-02T07:28:46.719Z,12.93
2023-05-02T07:29:46.746Z,13.00
2023-05-02T07:30:46.628Z,13.06
2023-05-02T07:31:46.653Z,13.04
2023-05-02T07:32:46.642Z,13.22
2023-05-02T07:33:46.706Z,13.25
2023-05-02T07:34:46.597Z,13.30
2023-05-02T07:35:46.692Z,13.30
2023-05-02T07:36:46.642Z,13.36
2023-05-02T07:37:46.743Z,13.41
2023-05-02T07:38:46.634Z,13.43
2023-05-02T07:39:46.662Z,13.25
2023-05-02T07:40:46.639Z,13.33
2023-05-02T07:41:46.606Z,13.46
2023-05-02T07:42:46.612Z,13.44
2023-05-02T07:43:47.071Z,13.33
2023-05-02T07:44:46.587Z,13.40
2023-05-02T07:45:46.666Z,13.41
2023-05-02T07:46:46.654Z,13.29
2023-05-02T07:47:46.630Z,13.47
2023-05-02T07:48:47.674Z,13.33
2023-05-02T07:49:46.421Z,13.40
2023-05-02T07:50:46.490Z,13.33
2023-05-02T07:51:46.621Z,13.49
2023-05-02T07:52:46.472Z,13.52
2023-05-02T07:53:46.453Z,13.52
2023-05-02T07:54:46.464Z,13.56
2023-05-02T07:55:46.409Z,13.59
2023-05-02T07:56:46.385Z,13.61
2023-05-02T07:57:46.493Z,13.63
2023-05-02T07:58:46.516Z,13.59
2023-05-02T07:59:46.525Z,13.62
2023-05-02T08:00:46.505Z,13.52
2023-05-02T08:01:46.452Z,13.56
2023-05-02T08:02:46.584Z,13.43
2023-05-02T08:03:46.664Z,13.47
2023-05-02T08:04:46.484Z,13.56
2023-05-02T08:05:46.492Z,13.46
2023-05-02T08:06:46.630Z,13.54
2023-05-02T08:07:46.453Z,13.49
2023-05-02T08:08:46.416Z,13.59
2023-05-02T08:09:46.461Z,13.74
2023-05-02T08:10:46.311Z,13.87
2023-05-02T08:11:46.318Z,13.81
2023-05-02T08:12:46.364Z,13.79
2023-05-02T08:13:46.337Z,13.76
2023-05-02T08:14:46.295Z,13.89
2023-05-02T08:15:46.359Z,13.92
2023-05-02T08:16:46.755Z,13.76
2023-05-02T08:17:47.353Z,13.94
2023-05-02T08:18:46.248Z,14.09
2023-05-02T08:19:46.355Z,13.79
2023-05-02T08:20:46.372Z,13.84
2023-05-02T08:21:46.377Z,13.89
2023-05-02T08:22:46.308Z,13.89
2023-05-02T08:23:46.291Z,13.88
2023-05-02T08:24:46.252Z,13.73
2023-05-02T08:25:46.301Z,13.76
2023-05-02T08:26:46.289Z,13.65
2023-05-02T08:27:46.348Z,13.59
2023-05-02T08:28:46.229Z,13.47
2023-05-02T08:29:46.263Z,13.46
2023-05-02T08:30:46.244Z,13.55
2023-05-02T08:31:46.333Z,13.61
2023-05-02T08:32:48.605Z,13.59
2023-05-02T08:33:47.417Z,13.70
2023-05-02T08:34:47.409Z,13.87
2023-05-02T08:35:46.483Z,14.02
2023-05-02T08:36:46.489Z,14.12
2023-05-02T08:37:46.404Z,14.28
2023-05-02T08:38:46.295Z,14.27
2023-05-02T08:39:46.171Z,14.29
2023-05-02T08:40:46.256Z,14.35
2023-05-02T08:41:46.167Z,14.17
2023-05-02T08:42:46.227Z,14.42
2023-05-02T08:43:46.752Z,14.65
2023-05-02T08:44:46.242Z,15.03
2023-05-02T08:45:46.224Z,15.19
2023-05-02T08:46:46.162Z,15.26
2023-05-02T08:47:46.122Z,15.46
2023-05-02T08:48:46.078Z,15.79
2023-05-02T08:49:46.166Z,15.81
2023-05-02T08:50:46.097Z,15.79
2023-05-02T08:51:46.059Z,15.52
2023-05-02T08:52:46.084Z,15.46
2023-05-02T08:53:46.053Z,15.39
2023-05-02T08:54:46.165Z,15.66
2023-05-02T08:55:46.204Z,15.68
2023-05-02T08:56:46.072Z,15.67
2023-05-02T08:57:46.180Z,15.51
2023-05-02T08:58:46.075Z,15.39
2023-05-02T08:59:46.098Z,15.36
2023-05-02T09:00:46.185Z,15.24
2023-05-02T09:01:46.097Z,14.91
2023-05-02T09:02:46.088Z,14.68
2023-05-02T09:03:46.041Z,14.61
2023-05-02T09:04:46.092Z,14.57
2023-05-02T09:05:46.022Z,14.68
2023-05-02T09:06:46.725Z,14.75
2023-05-02T09:07:46.115Z,14.49
2023-05-02T09:08:46.005Z,14.64
2023-05-02T09:09:45.956Z,14.74
2023-05-02T09:10:46.506Z,15.06
2023-05-02T09:11:45.919Z,15.30
2023-05-02T09:12:45.876Z,15.59
2023-05-02T09:13:45.998Z,15.68
2023-05-02T09:14:45.893Z,15.56
2023-05-02T09:15:45.851Z,15.63
2023-05-02T09:16:46.143Z,15.60
2023-05-02T09:17:45.964Z,15.46
2023-05-02T09:19:17.810Z,15.54
2023-05-02T09:19:45.951Z,15.38
2023-05-02T09:20:45.900Z,15.27
2023-05-02T09:21:45.923Z,15.05
2023-05-02T09:22:45.964Z,14.80
2023-05-02T09:23:46.008Z,14.21
2023-05-02T09:24:45.984Z,13.94
2023-05-02T09:25:45.914Z,13.79
2023-05-02T09:26:45.984Z,13.69
2023-05-02T09:27:45.879Z,13.65
2023-05-02T09:28:45.903Z,13.67
2023-05-02T09:29:45.937Z,13.79
2023-05-02T09:30:45.958Z,13.95
2023-05-02T09:31:55.466Z,13.92
2023-05-02T09:32:48.034Z,13.95
2023-05-02T09:33:45.894Z,14.06
2023-05-02T09:34:45.841Z,14.13
2023-05-02T09:35:45.981Z,14.21
2023-05-02T09:36:45.785Z,14.28
2023-05-02T09:37:45.820Z,14.19
2023-05-02T09:38:45.733Z,14.31
2023-05-02T09:39:45.845Z,14.25
2023-05-02T09:40:45.822Z,14.20
2023-05-02T09:41:45.804Z,14.49
2023-05-02T09:42:45.698Z,14.60
2023-05-02T09:43:45.807Z,14.62
2023-05-02T09:44:45.726Z,14.86
2023-05-02T09:45:45.764Z,14.80
2023-05-02T09:46:45.691Z,14.52
2023-05-02T09:47:45.929Z,14.56
2023-05-02T09:48:46.322Z,14.64
2023-05-02T09:49:46.493Z,14.78
2023-05-02T09:50:45.728Z,14.86
2023-05-02T09:51:45.723Z,14.99
2023-05-02T09:52:45.658Z,15.08
2023-05-02T09:53:45.675Z,15.21
2023-05-02T09:54:45.738Z,14.90
2023-05-02T09:55:45.652Z,14.83
2023-05-02T09:56:45.679Z,15.13
2023-05-02T09:57:45.518Z,15.39
2023-05-02T09:58:45.749Z,15.63
2023-05-02T09:59:45.738Z,15.60
2023-05-02T10:00:45.551Z,15.78
2023-05-02T10:01:45.620Z,15.97
2023-05-02T10:02:45.774Z,15.96
2023-05-02T10:03:45.666Z,16.04
2023-05-02T10:04:45.735Z,16.00
2023-05-02T10:05:45.654Z,16.09
2023-05-02T10:06:45.979Z,16.09
2023-05-02T10:07:45.553Z,15.72
2023-05-02T10:08:45.615Z,15.59
2023-05-02T10:09:45.549Z,15.39
2023-05-02T10:10:45.510Z,15.38
2023-05-02T10:11:45.460Z,15.12
2023-05-02T10:12:45.485Z,15.03
2023-05-02T10:13:45.445Z,14.87
2023-05-02T10:14:45.430Z,14.65
2023-05-02T10:15:45.668Z,14.46
2023-05-02T10:16:45.439Z,14.35
2023-05-02T10:17:45.516Z,14.21
2023-05-02T10:18:45.404Z,14.13
2023-05-02T10:19:45.485Z,14.17
2023-05-02T10:20:45.486Z,14.04
2023-05-02T10:21:45.815Z,14.01
2023-05-02T10:22:45.535Z,14.04
2023-05-02T10:23:45.561Z,14.04
2023-05-02T10:24:45.547Z,14.07
2023-05-02T10:25:45.480Z,14.09
2023-05-02T10:26:45.524Z,14.16
2023-05-02T10:27:45.535Z,14.17
2023-05-02T10:28:46.462Z,14.35
2023-05-02T10:29:45.421Z,14.44
2023-05-02T10:30:45.554Z,14.52
2023-05-02T10:31:45.457Z,14.47
2023-05-02T10:32:45.472Z,14.64
2023-05-02T10:33:45.468Z,14.57
2023-05-02T10:34:45.449Z,14.56
2023-05-02T10:35:45.397Z,14.72
2023-05-02T10:36:45.390Z,14.72
2023-05-02T10:37:45.364Z,14.81
2023-05-02T10:38:45.256Z,14.75
2023-05-02T10:39:45.537Z,14.81
2023-05-02T10:40:45.876Z,14.94
2023-05-02T10:41:45.522Z,15.08
2023-05-02T10:42:46.064Z,15.05
2023-05-02T10:43:45.434Z,15.06
2023-05-02T10:44:45.532Z,15.01
2023-05-02T10:45:45.360Z,14.99
2023-05-02T10:46:45.514Z,15.02
2023-05-02T10:47:45.536Z,15.15
2023-05-02T10:48:45.408Z,15.19
2023-05-02T10:49:47.150Z,15.23
2023-05-02T10:50:45.906Z,15.28
2023-05-02T10:51:45.276Z,15.26
2023-05-02T10:52:45.320Z,15.41
2023-05-02T10:53:45.692Z,15.42
2023-05-02T10:54:45.200Z,15.56
2023-05-02T10:55:45.113Z,15.36
2023-05-02T10:56:45.260Z,15.30
2023-05-02T10:57:46.275Z,15.30
2023-05-02T10:58:45.312Z,15.12
2023-05-02T10:59:45.242Z,15.20
2023-05-02T11:00:45.230Z,15.27
2023-05-02T11:01:45.259Z,15.33
2023-05-02T11:02:45.286Z,15.13
2023-05-02T11:03:45.280Z,15.15
2023-05-02T11:04:45.446Z,15.11
2023-05-02T11:05:45.262Z,15.05
2023-05-02T11:06:45.301Z,15.24
2023-05-02T11:07:45.354Z,15.23
2023-05-02T11:08:45.136Z,15.27
2023-05-02T11:09:45.304Z,15.30
2023-05-02T11:10:46.148Z,15.31
2023-05-02T11:11:45.333Z,15.41
2023-05-02T11:12:45.352Z,15.02
2023-05-02T11:13:45.395Z,14.98
2023-05-02T11:14:45.170Z,15.08
2023-05-02T11:15:45.525Z,15.05
2023-05-02T11:16:45.263Z,15.05
2023-05-02T11:17:45.483Z,15.06
2023-05-02T11:18:45.061Z,14.64
2023-05-02T11:19:45.031Z,14.44
2023-05-02T11:20:45.045Z,14.39
2023-05-02T11:21:45.085Z,14.38
2023-05-02T11:22:44.994Z,14.17
2023-05-02T11:23:44.965Z,14.17
2023-05-02T11:24:45.031Z,13.94
2023-05-02T11:25:44.987Z,13.94
2023-05-02T11:26:45.003Z,13.91
2023-05-02T11:27:44.978Z,13.70
2023-05-02T11:28:45.042Z,13.84
2023-05-02T11:29:44.946Z,13.58
2023-05-02T11:30:45.084Z,13.43
2023-05-02T11:31:44.951Z,13.43
2023-05-02T11:32:45.127Z,13.30
2023-05-02T11:33:44.844Z,13.20
2023-05-02T11:34:45.323Z,13.15
2023-05-02T11:35:44.839Z,13.11
2023-05-02T11:36:44.808Z,13.06
2023-05-02T11:37:44.951Z,13.07
2023-05-02T11:38:44.821Z,13.02
2023-05-02T11:39:45.117Z,13.02
2023-05-02T11:40:45.103Z,13.00
2023-05-02T11:41:44.839Z,13.04
2023-05-02T11:42:44.879Z,13.07
2023-05-02T11:43:44.943Z,13.04
2023-05-02T11:44:44.833Z,13.09
2023-05-02T11:45:44.937Z,13.14
2023-05-02T11:46:45.015Z,13.12
2023-05-02T11:47:45.031Z,13.20
2023-05-02T11:48:44.957Z,13.20
2023-05-02T11:49:44.828Z,13.29
2023-05-02T11:50:49.764Z,13.37
2023-05-02T11:51:46.689Z,13.43
2023-05-02T11:52:44.843Z,13.49
2023-05-02T11:53:46.118Z,13.67
2023-05-02T11:54:44.656Z,13.69
2023-05-02T11:55:44.650Z,13.59
2023-05-02T11:56:44.673Z,13.62
2023-05-02T11:57:45.726Z,13.77
2023-05-02T11:58:44.973Z,13.95
2023-05-02T11:59:44.703Z,14.04
2023-05-02T12:00:44.960Z,13.98
2023-05-02T12:01:44.690Z,14.21
2023-05-02T12:02:44.790Z,14.42
2023-05-02T12:03:44.729Z,14.49
2023-05-02T12:04:44.947Z,14.75
2023-05-02T12:05:44.705Z,14.78
2023-05-02T12:06:44.728Z,14.86
2023-05-02T12:07:44.790Z,15.05
2023-05-02T12:08:44.742Z,15.05
2023-05-02T12:09:44.682Z,14.93
2023-05-02T12:10:44.586Z,14.86
2023-05-02T12:11:44.572Z,14.65
2023-05-02T12:12:44.729Z,14.67
2023-05-02T12:13:44.619Z,14.64
2023-05-02T12:14:44.551Z,14.49
2023-05-02T12:15:44.601Z,14.47
2023-05-02T12:16:44.738Z,14.31
2023-05-02T12:17:44.536Z,14.28
2023-05-02T12:18:44.649Z,14.27
2023-05-02T12:19:44.599Z,14.31
2023-05-02T12:20:44.605Z,14.34
2023-05-02T12:21:44.613Z,14.34
2023-05-02T12:22:44.561Z,14.54
2023-05-02T12:23:44.567Z,14.52
2023-05-02T12:24:44.538Z,14.31
2023-05-02T12:25:44.528Z,14.31
2023-05-02T12:26:44.517Z,14.34
2023-05-02T12:27:44.537Z,14.37
2023-05-02T12:28:44.481Z,14.12
2023-05-02T12:29:44.517Z,14.14
2023-05-02T12:30:44.655Z,14.09
2023-05-02T12:31:44.557Z,14.14
2023-05-02T12:32:45.656Z,14.20
2023-05-02T12:33:44.530Z,14.31
2023-05-02T12:34:44.385Z,14.46
2023-05-02T12:35:44.483Z,14.64
2023-05-02T12:36:44.433Z,14.65
2023-05-02T12:37:45.615Z,14.61
2023-05-02T12:38:45.082Z,14.64
2023-05-02T12:39:44.474Z,14.47
2023-05-02T12:40:44.468Z,14.56
2023-05-02T12:41:44.520Z,14.52
2023-05-02T12:42:44.477Z,14.54
2023-05-02T12:43:44.524Z,14.49
2023-05-02T12:44:44.354Z,14.46
2023-05-02T12:45:44.507Z,14.42
2023-05-02T12:46:44.408Z,14.47
2023-05-02T12:47:44.483Z,14.31
2023-05-02T12:48:45.023Z,14.25
2023-05-02T12:49:44.290Z,14.04
2023-05-02T12:50:44.436Z,13.94
2023-05-02T12:51:44.268Z,13.89
2023-05-02T12:52:44.327Z,13.76
2023-05-02T12:53:44.337Z,13.89
2023-05-02T12:54:44.624Z,13.89
2023-05-02T12:55:44.278Z,13.95
2023-05-02T12:56:44.252Z,14.04
2023-05-02T12:57:44.340Z,13.89
2023-05-02T12:58:44.344Z,13.87
2023-05-02T12:59:44.268Z,13.65